createdAt,value
2018-07-30T00:01:35.505Z,8.30
2018-07-30T00:04:04.273Z,8.30
2018-07-30T00:06:32.933Z,8.77
2018-07-30T00:09:01.567Z,8.80
2018-07-30T00:11:30.126Z,8.17
2018-07-30T00:14:02.396Z,8.80
2018-07-30T00:16:31.012Z,9.00
2018-07-30T00:18:59.772Z,8.57
2018-07-30T00:21:28.384Z,8.20
2018-07-30T00:23:57.189Z,8.20
2018-07-30T00:26:25.772Z,8.57
2018-07-30T00:28:54.373Z,8.43
2018-07-30T00:31:23.121Z,9.77
2018-07-30T00:33:51.745Z,8.73
2018-07-30T00:36:20.404Z,8.63
2018-07-30T00:38:49.014Z,8.70
2018-07-30T00:41:17.618Z,9.87
2018-07-30T00:43:46.194Z,9.53
2018-07-30T00:46:14.882Z,10.23
2018-07-30T00:48:43.535Z,9.90
2018-07-30T00:51:12.126Z,10.00
2018-07-30T00:53:40.777Z,10.00
2018-07-30T00:56:09.480Z,9.70
2018-07-30T00:58:38.143Z,8.77
2018-07-30T01:01:06.704Z,9.73
2018-07-30T01:03:35.270Z,9.30
2018-07-30T01:06:03.945Z,9.30
2018-07-30T01:08:32.754Z,9.70
2018-07-30T01:11:01.406Z,9.00
2018-07-30T01:13:30.109Z,9.03
2018-07-30T01:15:58.823Z,9.07
2018-07-30T01:18:27.414Z,9.50
2018-07-30T01:20:56.161Z,9.37
2018-07-30T01:23:24.790Z,9.90
2018-07-30T01:25:53.533Z,8.90
2018-07-30T01:28:22.138Z,9.20
2018-07-30T01:30:50.726Z,9.80
2018-07-30T01:33:19.435Z,8.80
2018-07-30T01:35:48.069Z,9.37
2018-07-30T01:38:16.658Z,9.17
2018-07-30T01:40:45.330Z,9.00
2018-07-30T01:43:13.957Z,9.93
2018-07-30T01:45:42.563Z,9.03
2018-07-30T01:48:11.165Z,9.03
2018-07-30T01:50:39.800Z,9.50
2018-07-30T01:53:08.441Z,8.93
2018-07-30T01:55:37.122Z,9.33
2018-07-30T01:58:05.853Z,9.23
2018-07-30T02:00:34.434Z,8.83
2018-07-30T02:03:03.139Z,9.47
2018-07-30T02:05:31.786Z,8.77
2018-07-30T02:08:00.477Z,9.20
2018-07-30T02:10:29.073Z,9.63
2018-07-30T02:12:57.839Z,9.63
2018-07-30T02:15:26.436Z,9.03
2018-07-30T02:17:55.052Z,9.53
2018-07-30T02:20:23.718Z,9.13
2018-07-30T02:22:52.328Z,8.77
2018-07-30T02:25:21.067Z,9.40
2018-07-30T02:27:49.661Z,9.10
2018-07-30T02:30:18.394Z,8.83
2018-07-30T02:32:47.104Z,9.80
2018-07-30T02:35:15.817Z,9.93
2018-07-30T02:55:09.215Z,10.23
2018-07-30T02:57:37.899Z,9.37
2018-07-30T03:00:07.524Z,9.53
2018-07-30T03:02:36.186Z,9.70
2018-07-30T03:05:05.326Z,10.00
2018-07-30T03:07:34.034Z,10.00
2018-07-30T03:10:02.639Z,9.70
2018-07-30T03:12:31.398Z,10.67
2018-07-30T03:15:00.054Z,10.87
2018-07-30T03:17:28.773Z,10.20
2018-07-30T03:19:57.389Z,9.73
2018-07-30T03:22:26.112Z,10.00
2018-07-30T03:24:54.697Z,9.80
2018-07-30T03:27:23.350Z,9.27
2018-07-30T03:29:52.031Z,10.13
2018-07-30T03:32:20.649Z,10.00
2018-07-30T03:34:49.271Z,9.37
2018-07-30T03:37:17.872Z,10.07
2018-07-30T03:39:46.485Z,9.90
2018-07-30T03:42:15.369Z,10.37
2018-07-30T03:44:44.017Z,9.40
2018-07-30T03:47:13.083Z,10.20
2018-07-30T03:49:41.733Z,9.87
2018-07-30T03:52:10.436Z,10.33
2018-07-30T03:54:39.155Z,10.50
2018-07-30T03:57:07.823Z,9.77
2018-07-30T03:59:36.465Z,10.60
2018-07-30T04:02:05.203Z,10.00
2018-07-30T04:04:33.798Z,10.40
2018-07-30T04:07:02.419Z,11.10
2018-07-30T04:09:41.259Z,10.50
2018-07-30T04:12:19.445Z,11.10
2018-07-30T04:14:48.069Z,10.30
2018-07-30T04:17:16.643Z,9.63
2018-07-30T04:19:47.342Z,9.53
2018-07-30T04:22:16.240Z,10.83
2018-07-30T04:24:44.867Z,10.33
2018-07-30T04:27:13.517Z,10.90
2018-07-30T04:30:02.485Z,9.80
2018-07-30T04:32:31.397Z,9.90
2018-07-30T04:37:58.542Z,10.50
2018-07-30T04:40:27.316Z,10.20
2018-07-30T04:43:02.203Z,10.07
2018-07-30T04:45:47.546Z,9.43
2018-07-30T04:48:16.308Z,9.50
2018-07-30T04:50:45.074Z,9.60
2018-07-30T04:53:13.752Z,9.00
2018-07-30T04:55:42.417Z,9.07
2018-07-30T04:58:13.611Z,9.70
2018-07-30T05:00:42.320Z,9.53
2018-07-30T05:03:10.994Z,9.17
2018-07-30T05:05:43.324Z,8.90
2018-07-30T05:08:11.930Z,9.23
2018-07-30T05:10:40.551Z,9.33
2018-07-30T05:13:09.252Z,9.23
2018-07-30T05:15:37.966Z,8.67
2018-07-30T05:18:06.660Z,8.77
2018-07-30T05:20:35.333Z,9.50
2018-07-30T05:23:03.979Z,8.50
2018-07-30T05:25:32.727Z,8.90
2018-07-30T05:28:01.244Z,9.17
2018-07-30T05:30:29.989Z,8.90
2018-07-30T05:32:58.549Z,9.20
2018-07-30T05:35:27.172Z,9.03
2018-07-30T05:37:55.393Z,9.80
2018-07-30T05:46:12.855Z,9.23
2018-07-30T05:48:41.514Z,9.20
2018-07-30T05:51:10.254Z,9.80
2018-07-30T05:53:38.922Z,9.70
2018-07-30T05:56:08.719Z,9.20
2018-07-30T05:58:37.415Z,9.10
2018-07-30T06:01:06.259Z,9.13
2018-07-30T06:03:34.958Z,8.30
2018-07-30T06:06:03.639Z,8.40
2018-07-30T06:08:32.286Z,8.53
2018-07-30T06:11:00.971Z,8.40
2018-07-30T06:13:29.590Z,9.23
2018-07-30T06:15:57.889Z,9.90
2018-07-30T06:18:28.625Z,9.43
2018-07-30T06:20:57.296Z,8.83
2018-07-30T06:23:26.106Z,9.27
2018-07-30T06:26:05.521Z,9.57
2018-07-30T06:28:34.134Z,9.07
2018-07-30T06:31:02.795Z,9.20
2018-07-30T06:33:31.448Z,9.03
2018-07-30T06:36:00.161Z,8.43
2018-07-30T06:38:28.871Z,9.33
2018-07-30T06:40:57.592Z,8.67
2018-07-30T06:43:26.351Z,8.63
2018-07-30T06:45:54.996Z,9.50
2018-07-30T06:48:23.719Z,9.13
2018-07-30T06:50:52.450Z,9.43
2018-07-30T06:53:21.127Z,8.97
2018-07-30T06:55:49.751Z,8.40
2018-07-30T06:58:18.926Z,8.67
2018-07-30T07:00:47.630Z,8.17
2018-07-30T07:03:16.181Z,8.30
2018-07-30T07:05:44.839Z,7.30
2018-07-30T07:08:13.489Z,7.50
2018-07-30T07:10:42.145Z,7.87
2018-07-30T07:13:10.795Z,8.37
2018-07-30T07:15:39.455Z,7.03
2018-07-30T07:18:08.029Z,8.07
2018-07-30T07:20:36.706Z,8.00
2018-07-30T07:23:05.558Z,8.00
2018-07-30T07:25:34.265Z,8.33
2018-07-30T07:28:03.102Z,8.23
2018-07-30T07:30:31.802Z,7.33
2018-07-30T07:33:00.485Z,7.63
2018-07-30T07:35:29.150Z,6.27
2018-07-30T07:37:57.877Z,6.07
2018-07-30T07:40:26.631Z,6.57
2018-07-30T07:42:55.162Z,6.43
2018-07-30T07:45:23.838Z,5.93
2018-07-30T07:47:52.422Z,5.97
2018-07-30T07:50:21.386Z,7.90
2018-07-30T07:52:49.839Z,5.70
2018-07-30T07:55:18.521Z,5.87
2018-07-30T07:57:47.103Z,6.40
2018-07-30T08:00:15.726Z,5.50
2018-07-30T08:02:44.444Z,5.57
2018-07-30T08:05:12.698Z,5.70
2018-07-30T08:07:41.393Z,5.43
2018-07-30T08:10:10.025Z,5.87
2018-07-30T08:12:38.634Z,5.33
2018-07-30T08:15:08.397Z,5.10
2018-07-30T08:17:37.014Z,5.27
2018-07-30T08:20:06.703Z,4.50
2018-07-30T08:22:35.379Z,5.10
2018-07-30T08:25:04.878Z,5.00
2018-07-30T08:27:33.576Z,4.50
2018-07-30T08:30:02.192Z,4.47
2018-07-30T08:32:30.783Z,4.53
2018-07-30T08:34:59.403Z,3.87
2018-07-30T08:37:28.071Z,4.07
2018-07-30T08:39:56.640Z,3.80
2018-07-30T08:42:25.284Z,3.93
2018-07-30T08:44:53.920Z,3.73
2018-07-30T08:47:22.482Z,3.40
2018-07-30T08:49:51.103Z,3.63
2018-07-30T08:52:19.955Z,3.60
2018-07-30T08:54:48.601Z,3.70
2018-07-30T08:57:17.181Z,3.60
2018-07-30T08:59:45.730Z,3.90
2018-07-30T09:02:14.301Z,4.10
2018-07-30T09:04:42.906Z,3.67
2018-07-30T09:07:11.486Z,3.80
2018-07-30T09:09:40.156Z,3.83
2018-07-30T09:12:08.740Z,3.63
2018-07-30T09:14:37.312Z,4.10
2018-07-30T09:17:28.888Z,3.73
2018-07-30T09:20:09.650Z,3.60
2018-07-30T09:22:38.295Z,3.90
2018-07-30T09:25:06.908Z,2.80
2018-07-30T09:27:46.723Z,3.40
2018-07-30T09:30:15.314Z,3.67
2018-07-30T09:32:50.517Z,3.27
2018-07-30T09:35:19.102Z,3.60
2018-07-30T09:37:47.758Z,3.20
2018-07-30T09:40:16.433Z,3.30
2018-07-30T09:42:45.044Z,3.60
2018-07-30T09:45:13.637Z,3.33
2018-07-30T09:47:42.314Z,3.30
2018-07-30T09:50:10.903Z,3.10
2018-07-30T09:52:39.449Z,3.40
2018-07-30T09:55:08.009Z,3.50
2018-07-30T09:57:36.594Z,3.63
2018-07-30T10:00:11.260Z,3.37
2018-07-30T10:02:39.818Z,3.77
2018-07-30T10:13:51.991Z,3.23
2018-07-30T10:16:20.570Z,3.03
2018-07-30T10:18:48.742Z,3.17
2018-07-30T10:21:17.308Z,3.43
2018-07-30T10:23:45.920Z,3.63
2018-07-30T10:26:14.490Z,3.43
2018-07-30T10:28:43.103Z,2.73
2018-07-30T10:31:11.820Z,2.77
2018-07-30T10:33:40.540Z,3.10
2018-07-30T10:36:09.262Z,2.87
2018-07-30T10:38:37.921Z,2.80
2018-07-30T10:41:06.556Z,3.17
2018-07-30T10:43:35.276Z,3.10
2018-07-30T10:49:05.234Z,3.00
2018-07-30T10:51:51.367Z,2.90
2018-07-30T10:54:31.811Z,3.10
2018-07-30T10:57:10.791Z,2.90
2018-07-30T10:59:39.524Z,3.00
2018-07-30T11:02:08.275Z,3.13
2018-07-30T11:04:39.423Z,3.00
2018-07-30T11:07:08.086Z,3.10
2018-07-30T11:09:36.731Z,3.17
2018-07-30T11:12:05.478Z,3.33
2018-07-30T11:14:34.041Z,3.10
2018-07-30T11:17:03.080Z,3.10
2018-07-30T11:19:31.677Z,3.20
2018-07-30T11:22:00.226Z,3.63
2018-07-30T11:24:28.801Z,2.80
2018-07-30T11:26:57.367Z,2.70
2018-07-30T11:29:25.944Z,2.77
2018-07-30T11:31:54.470Z,3.47
2018-07-30T11:34:23.042Z,2.97
2018-07-30T11:36:51.615Z,2.83
2018-07-30T11:39:20.182Z,2.70
2018-07-30T11:41:48.822Z,2.60
2018-07-30T11:44:17.454Z,3.13
2018-07-30T11:46:46.028Z,2.73
2018-07-30T11:49:14.630Z,3.17
2018-07-30T11:51:43.254Z,3.13
2018-07-30T11:54:11.833Z,3.17
2018-07-30T11:56:40.414Z,2.90
2018-07-30T11:59:09.090Z,2.97
2018-07-30T12:01:37.661Z,3.20
2018-07-30T12:04:05.848Z,3.30
2018-07-30T12:06:34.397Z,3.13
2018-07-30T12:09:03.111Z,2.90
2018-07-30T12:11:31.653Z,3.13
2018-07-30T12:14:00.263Z,3.40
2018-07-30T12:16:28.794Z,2.93
2018-07-30T12:18:57.397Z,3.30
2018-07-30T12:21:25.934Z,3.10
2018-07-30T12:23:54.435Z,3.10
2018-07-30T12:26:23.006Z,2.93
2018-07-30T12:28:51.549Z,3.20
2018-07-30T12:31:20.114Z,3.13
2018-07-30T12:33:48.736Z,3.33
2018-07-30T12:36:17.381Z,3.20
2018-07-30T12:38:45.961Z,3.20
2018-07-30T12:41:14.450Z,3.30
2018-07-30T12:43:43.055Z,3.43
2018-07-30T12:46:11.702Z,3.57
2018-07-30T12:48:40.327Z,3.50
2018-07-30T12:51:09.141Z,3.30
2018-07-30T12:53:37.709Z,3.70
2018-07-30T12:56:06.563Z,3.40
2018-07-30T12:58:35.171Z,3.27
2018-07-30T13:01:03.729Z,3.17
2018-07-30T13:03:35.445Z,3.37
2018-07-30T13:06:04.024Z,3.00
2018-07-30T13:08:32.789Z,3.50
2018-07-30T13:11:01.365Z,3.43
2018-07-30T13:13:30.047Z,3.60
2018-07-30T13:15:58.755Z,4.07
2018-07-30T13:19:02.416Z,3.90
2018-07-30T13:21:31.021Z,3.40
2018-07-30T13:24:00.940Z,3.40
2018-07-30T13:26:34.327Z,3.50
2018-07-30T13:29:16.026Z,3.60
2018-07-30T13:31:44.617Z,3.33
2018-07-30T13:34:13.213Z,3.20
2018-07-30T13:36:41.807Z,3.60
2018-07-30T13:39:10.779Z,4.03
2018-07-30T13:41:39.733Z,3.90
2018-07-30T13:44:08.337Z,3.67
2018-07-30T13:46:37.166Z,3.90
2018-07-30T13:49:06.918Z,3.80
2018-07-30T13:51:35.538Z,3.87
2018-07-30T13:54:04.213Z,3.97
2018-07-30T13:56:32.846Z,3.90
2018-07-30T13:59:01.393Z,3.53
2018-07-30T14:01:30.109Z,3.80
2018-07-30T14:03:58.732Z,3.60
2018-07-30T14:06:27.402Z,3.70
2018-07-30T14:08:55.945Z,3.90
2018-07-30T14:11:24.494Z,4.00
2018-07-30T14:13:53.127Z,4.30
2018-07-30T14:16:21.734Z,3.87
2018-07-30T14:18:50.398Z,3.90
2018-07-30T14:21:18.962Z,3.43
2018-07-30T14:23:47.521Z,3.73
2018-07-30T14:26:16.109Z,3.57
2018-07-30T14:28:44.686Z,3.70
2018-07-30T14:31:13.291Z,4.00
2018-07-30T14:33:41.918Z,3.77
2018-07-30T14:36:10.554Z,4.00
2018-07-30T14:38:39.272Z,3.80
2018-07-30T14:41:08.051Z,3.80
2018-07-30T14:43:36.657Z,3.77
2018-07-30T14:46:05.380Z,3.70
2018-07-30T14:48:33.969Z,4.50
2018-07-30T14:51:02.580Z,3.90
2018-07-30T14:53:31.145Z,4.00
2018-07-30T14:55:59.710Z,3.73
2018-07-30T14:58:28.585Z,4.13
2018-07-30T15:00:57.311Z,4.27
2018-07-30T15:03:26.283Z,4.00
2018-07-30T15:05:54.926Z,3.80
2018-07-30T15:08:23.577Z,3.97
2018-07-30T15:10:52.161Z,3.90
2018-07-30T15:13:20.781Z,3.80
2018-07-30T15:15:49.350Z,3.97
2018-07-30T15:18:17.918Z,4.43
2018-07-30T15:20:46.479Z,4.17
2018-07-30T15:23:15.077Z,3.60
2018-07-30T15:25:43.722Z,4.10
2018-07-30T15:28:12.282Z,4.00
2018-07-30T15:30:40.903Z,3.80
2018-07-30T15:33:09.669Z,4.63
2018-07-30T15:35:38.185Z,4.23
2018-07-30T15:41:14.310Z,4.20
2018-07-30T15:43:49.521Z,4.77
2018-07-30T15:49:21.872Z,4.40
2018-07-30T15:51:50.493Z,4.60
2018-07-30T15:54:19.044Z,4.47
2018-07-30T15:56:47.565Z,4.47
2018-07-30T15:59:16.104Z,3.93
2018-07-30T16:01:44.725Z,4.00
2018-07-30T16:12:46.550Z,4.40
2018-07-30T16:15:14.835Z,4.20
2018-07-30T16:17:43.443Z,4.40
2018-07-30T16:20:12.107Z,3.80
2018-07-30T16:22:59.983Z,4.43
2018-07-30T16:25:31.996Z,4.23
2018-07-30T16:28:04.824Z,4.40
2018-07-30T16:30:33.122Z,4.60
2018-07-30T16:33:01.642Z,4.30
2018-07-30T16:38:34.502Z,4.70
2018-07-30T16:41:04.079Z,4.30
2018-07-30T16:43:32.608Z,4.50
2018-07-30T16:46:01.082Z,4.90
2018-07-30T16:48:29.586Z,4.40
2018-07-30T16:50:58.037Z,4.80
2018-07-30T16:56:00.514Z,4.27
2018-07-30T16:58:28.986Z,4.70
2018-07-30T17:00:57.462Z,4.70
2018-07-30T17:03:25.979Z,4.77
2018-07-30T17:05:54.485Z,5.00
2018-07-30T17:08:22.743Z,4.93
2018-07-30T17:10:51.248Z,5.33
2018-07-30T17:13:19.673Z,5.00
2018-07-30T17:15:48.350Z,5.00
2018-07-30T17:18:16.818Z,4.80
2018-07-30T17:20:59.653Z,5.30
2018-07-30T17:23:28.358Z,5.47
2018-07-30T17:25:57.143Z,5.27
2018-07-30T17:28:25.953Z,5.47
2018-07-30T17:30:54.957Z,5.20
2018-07-30T17:33:23.693Z,5.40
2018-07-30T17:35:52.743Z,5.83
2018-07-30T17:38:21.791Z,5.53
2018-07-30T17:40:50.702Z,6.03
2018-07-30T17:43:19.674Z,5.53
2018-07-30T17:45:47.982Z,5.43
2018-07-30T17:51:14.421Z,5.90
2018-07-30T17:53:43.129Z,6.80
2018-07-30T17:56:12.082Z,5.97
2018-07-30T17:58:40.843Z,6.20
2018-07-30T18:01:09.567Z,5.60
2018-07-30T18:06:41.710Z,5.90
2018-07-30T18:09:18.482Z,7.70
2018-07-30T18:11:47.170Z,6.47
2018-07-30T18:14:15.842Z,5.90
2018-07-30T18:16:44.488Z,6.23
2018-07-30T18:19:13.143Z,6.60
2018-07-30T18:21:41.763Z,6.50
2018-07-30T18:24:11.490Z,6.50
2018-07-30T18:26:40.246Z,7.37
2018-07-30T18:29:08.956Z,6.20
2018-07-30T18:31:55.511Z,6.07
2018-07-30T18:34:24.169Z,6.23
2018-07-30T18:36:52.858Z,6.07
2018-07-30T18:42:24.322Z,6.97
2018-07-30T18:44:53.119Z,7.13
2018-07-30T18:47:21.769Z,6.70
2018-07-30T18:49:50.397Z,7.20
2018-07-30T18:52:21.067Z,9.53
2018-07-30T18:54:49.707Z,8.00
2018-07-30T18:57:18.358Z,6.10
2018-07-30T18:59:47.056Z,7.93
2018-07-30T19:02:15.780Z,7.77
2018-07-30T19:04:44.517Z,9.63
2018-07-30T19:07:13.119Z,8.60
2018-07-30T19:09:41.766Z,6.83
2018-07-30T19:12:10.620Z,7.03
2018-07-30T19:14:39.615Z,7.97
2018-07-30T19:17:28.991Z,7.73
2018-07-30T19:19:57.626Z,8.10
2018-07-30T19:22:26.548Z,6.33
2018-07-30T19:24:55.647Z,7.13
2018-07-30T19:27:24.366Z,7.37
2018-07-30T19:29:53.324Z,6.60
2018-07-30T19:32:22.337Z,7.20
2018-07-30T19:34:50.665Z,6.70
2018-07-30T19:37:19.617Z,7.00
2018-07-30T19:39:48.606Z,7.47
2018-07-30T19:42:17.682Z,7.13
2018-07-30T19:44:46.763Z,7.20
2018-07-30T19:47:15.439Z,7.60
2018-07-30T19:49:44.104Z,7.60
2018-07-30T19:52:13.013Z,7.57
2018-07-30T19:54:41.746Z,7.10
2018-07-30T19:57:10.517Z,6.83
2018-07-30T19:59:39.537Z,6.90
2018-07-30T20:02:08.374Z,6.63
2018-07-30T20:04:37.480Z,6.90
2018-07-30T20:07:06.527Z,6.90
2018-07-30T20:09:35.310Z,6.70
2018-07-30T20:12:04.195Z,7.30
2018-07-30T20:14:33.108Z,7.07
2018-07-30T20:17:02.020Z,8.23
2018-07-30T20:19:30.754Z,6.80
2018-07-30T20:21:59.660Z,6.90
2018-07-30T20:24:28.413Z,7.20
2018-07-30T20:26:57.400Z,6.93
2018-07-30T20:29:26.343Z,7.00
2018-07-30T20:31:55.117Z,7.30
2018-07-30T20:34:23.690Z,7.40
2018-07-30T20:36:52.448Z,6.47
2018-07-30T20:39:21.226Z,6.70
2018-07-30T20:41:49.900Z,6.90
2018-07-30T20:44:18.538Z,7.00
2018-07-30T20:46:47.167Z,6.63
2018-07-30T20:52:21.610Z,7.27
2018-07-30T20:54:49.858Z,6.43
2018-07-30T20:57:18.487Z,6.77
2018-07-30T20:59:47.140Z,6.60
2018-07-30T21:02:15.830Z,6.20
2018-07-30T21:04:44.515Z,6.53
2018-07-30T21:07:13.238Z,6.30
2018-07-30T21:09:41.992Z,6.60
2018-07-30T21:12:10.649Z,6.63
2018-07-30T21:14:39.295Z,6.90
2018-07-30T21:17:07.990Z,6.00
2018-07-30T21:19:36.735Z,6.33
2018-07-30T21:22:05.454Z,6.27
2018-07-30T21:24:34.034Z,6.03
2018-07-30T21:27:02.671Z,6.50
2018-07-30T21:29:32.172Z,6.30
2018-07-30T21:32:00.911Z,6.17
2018-07-30T21:34:29.672Z,6.63
2018-07-30T21:36:58.446Z,6.33
2018-07-30T21:39:27.149Z,6.63
2018-07-30T21:41:55.876Z,6.17
2018-07-30T21:44:24.483Z,6.13
2018-07-30T21:46:53.186Z,5.70
2018-07-30T21:49:21.801Z,6.40
2018-07-30T21:51:50.466Z,6.40
2018-07-30T21:54:19.175Z,6.97
2018-07-30T21:56:47.895Z,6.30
2018-07-30T21:59:16.700Z,6.73
2018-07-30T22:01:45.457Z,6.83
2018-07-30T22:04:14.156Z,7.30
2018-07-30T22:06:42.815Z,6.83
2018-07-30T22:09:11.467Z,7.40
2018-07-30T22:11:40.153Z,6.70
2018-07-30T22:14:08.804Z,6.50
2018-07-30T22:16:37.421Z,6.73
2018-07-30T22:19:06.157Z,6.27
2018-07-30T22:21:34.747Z,6.70
2018-07-30T22:24:03.433Z,7.07
2018-07-30T22:26:31.972Z,7.23
2018-07-30T22:29:00.653Z,7.10
2018-07-30T22:31:29.296Z,6.80
2018-07-30T22:33:58.016Z,7.00
2018-07-30T22:36:26.597Z,7.10
2018-07-30T22:38:55.230Z,6.83
2018-07-30T22:41:23.895Z,7.20
2018-07-30T22:43:52.537Z,7.20
2018-07-30T22:46:21.149Z,6.40
2018-07-30T22:48:49.779Z,7.20
2018-07-30T22:51:18.374Z,6.60
2018-07-30T22:53:47.036Z,6.77
2018-07-30T22:56:15.694Z,6.10
2018-07-30T22:58:44.282Z,6.67
2018-07-30T23:01:12.877Z,6.67
2018-07-30T23:03:41.613Z,7.10
2018-07-30T23:06:10.399Z,6.67
2018-07-30T23:08:39.192Z,6.00
2018-07-30T23:11:07.852Z,6.40
2018-07-30T23:13:36.603Z,6.40
2018-07-30T23:16:05.331Z,6.40
2018-07-30T23:18:34.040Z,6.90
2018-07-30T23:21:02.745Z,6.80
2018-07-30T23:23:31.403Z,6.40
2018-07-30T23:26:00.030Z,6.53
2018-07-30T23:28:28.673Z,6.60
2018-07-30T23:30:57.399Z,6.80
2018-07-30T23:33:26.057Z,6.13
2018-07-30T23:35:55.121Z,7.67
2018-07-30T23:38:23.752Z,7.40
2018-07-30T23:40:52.317Z,6.60
2018-07-30T23:43:20.918Z,7.00
2018-07-30T23:45:49.713Z,7.17
2018-07-30T23:48:18.424Z,7.20
2018-07-30T23:50:47.057Z,7.37
2018-07-30T23:53:15.647Z,7.17
2018-07-30T23:55:43.985Z,6.87
2018-07-30T23:58:12.637Z,7.67
